Time;durP1;ratioP1;P1;durP2;ratioP2;P2;SDS_P1;SDS_P2;PMS_P1;PMS_P2;Temp;Humidity;BMP_temperature;BMP_pressure;BME280_temperature;BME280_humidity;BME280_pressure;Samples;Min_cycle;Max_cycle;Signal;HPM_P1;HPM_P2
2022/03/02 00:01:16;;;;;;;5.95;3.15;;;7.60;73.60;;;;;;5003551;28;20501;-76
2022/03/02 00:03:44;;;;;;;6.18;3.20;;;7.60;73.70;;;;;;5053342;28;20043;-76
2022/03/02 00:06:11;;;;;;;6.28;3.17;;;7.60;73.70;;;;;;5019158;28;20079;-76
2022/03/02 00:08:38;;;;;;;6.63;3.13;;;7.50;73.70;;;;;;5002962;28;20580;-76
2022/03/02 00:11:05;;;;;;;5.90;2.67;;;7.60;73.70;;;;;;5002903;28;20048;-76
2022/03/02 00:13:32;;;;;;;6.35;3.28;;;7.60;73.60;;;;;;5018838;28;20045;-76
2022/03/02 00:16:02;;;;;;;6.30;3.35;;;7.60;73.50;;;;;;5018888;28;20106;-76
2022/03/02 00:18:29;;;;;;;6.00;2.97;;;7.50;73.40;;;;;;5018845;28;20053;-76
2022/03/02 00:20:56;;;;;;;5.82;2.92;;;7.60;73.50;;;;;;5035400;28;20099;-76
2022/03/02 00:23:23;;;;;;;6.88;3.28;;;7.60;73.50;;;;;;5035162;28;20041;-76
2022/03/02 00:25:51;;;;;;;5.28;2.50;;;7.60;73.50;;;;;;5018786;28;20041;-76
2022/03/02 00:28:18;;;;;;;6.22;3.35;;;7.60;73.40;;;;;;5034613;28;20037;-76
2022/03/02 00:30:46;;;;;;;5.63;3.15;;;7.60;73.30;;;;;;5018632;28;20041;-76
2022/03/02 00:33:13;;;;;;;6.80;3.30;;;7.60;73.20;;;;;;5052697;28;20452;-76
2022/03/02 00:35:40;;;;;;;6.88;3.35;;;7.60;73.20;;;;;;5002293;28;20084;-76
2022/03/02 00:38:10;;;;;;;7.72;4.03;;;7.60;73.10;;;;;;5002195;28;20053;-76
2022/03/02 00:40:38;;;;;;;5.18;2.47;;;7.50;73.00;;;;;;5018493;28;20454;-76
2022/03/02 00:43:06;;;;;;;6.28;2.70;;;7.60;73.00;;;;;;5034851;28;20040;-76
2022/03/02 00:45:34;;;;;;;4.65;2.45;;;7.60;72.90;;;;;;5052518;28;20508;-76
2022/03/02 00:48:03;;;;;;;6.45;3.40;;;7.50;72.90;;;;;;5018358;28;20163;-77
2022/03/02 00:50:31;;;;;;;6.35;2.95;;;7.50;73.00;;;;;;5034898;28;20547;-76
2022/03/02 00:52:59;;;;;;;5.57;2.70;;;7.50;73.00;;;;;;5034695;28;20045;-76
2022/03/02 00:55:26;;;;;;;5.38;2.80;;;7.50;73.70;;;;;;5052556;28;20436;-76
2022/03/02 00:57:53;;;;;;;6.35;2.65;;;7.50;73.20;;;;;;5034396;28;20080;-76
2022/03/02 01:00:20;;;;;;;5.85;3.13;;;7.50;73.30;;;;;;5002133;28;20043;-76
2022/03/02 01:02:47;;;;;;;6.30;3.30;;;7.40;73.30;;;;;;5001849;28;20531;-77
2022/03/02 01:05:14;;;;;;;5.78;2.70;;;7.40;73.30;;;;;;5018335;28;20126;-77
2022/03/02 01:07:41;;;;;;;6.47;3.08;;;7.40;73.40;;;;;;5034140;28;20048;-76
2022/03/02 01:10:09;;;;;;;5.25;3.00;;;7.40;73.50;;;;;;5017998;28;20044;-77
2022/03/02 01:12:36;;;;;;;6.15;3.03;;;7.40;73.50;;;;;;5056637;28;20102;-76
2022/03/02 01:15:07;;;;;;;7.20;3.85;;;7.30;73.60;;;;;;5040560;28;20041;-75
2022/03/02 01:17:34;;;;;;;5.57;2.55;;;7.30;73.70;;;;;;5021889;28;20103;-76
2022/03/02 01:20:05;;;;;;;6.70;3.22;;;7.30;73.80;;;;;;5019318;28;20412;-76
2022/03/02 01:22:32;;;;;;;5.93;3.05;;;7.30;73.80;;;;;;5035533;28;20057;-76
2022/03/02 01:24:59;;;;;;;7.22;3.55;;;7.30;74.00;;;;;;5035504;28;20072;-76
2022/03/02 01:27:26;;;;;;;6.05;3.47;;;7.30;74.00;;;;;;5034444;28;20052;-76
2022/03/02 01:29:53;;;;;;;5.97;3.53;;;7.20;74.00;;;;;;5018111;28;20075;-76
2022/03/02 01:32:21;;;;;;;6.40;3.17;;;7.20;74.10;;;;;;5017877;28;20417;-76
2022/03/02 01:34:49;;;;;;;6.90;4.32;;;7.20;74.10;;;;;;5034193;28;20095;-76
2022/03/02 01:37:16;;;;;;;6.57;3.35;;;7.20;74.10;;;;;;5035939;28;20056;-76
2022/03/02 01:39:44;;;;;;;6.57;3.70;;;7.10;74.10;;;;;;5020084;28;20048;-76
2022/03/02 01:42:11;;;;;;;6.60;3.75;;;7.10;74.10;;;;;;5038299;28;20128;-76
2022/03/02 01:44:38;;;;;;;9.50;3.85;;;7.10;74.20;;;;;;5005500;28;20052;-76
2022/03/02 01:47:06;;;;;;;6.82;3.47;;;7.10;74.20;;;;;;5021732;28;20049;-76
2022/03/02 01:49:34;;;;;;;7.32;3.45;;;7.10;74.20;;;;;;5005684;28;20507;-76
2022/03/02 01:52:02;;;;;;;7.55;4.13;;;7.10;74.20;;;;;;5021441;28;20041;-76
2022/03/02 01:54:29;;;;;;;6.90;3.70;;;7.00;74.20;;;;;;5021545;28;20099;-76
2022/03/02 01:56:56;;;;;;;6.40;3.60;;;7.00;74.10;;;;;;5005164;28;20045;-77
2022/03/02 01:59:23;;;;;;;7.40;4.25;;;7.00;74.00;;;;;;5021356;28;20099;-76
2022/03/02 02:01:50;;;;;;;7.10;3.17;;;7.00;74.00;;;;;;5004936;28;20051;-76
2022/03/02 02:04:17;;;;;;;5.90;3.45;;;7.00;73.90;;;;;;5005325;28;20408;-76
2022/03/02 02:06:44;;;;;;;7.68;4.00;;;7.10;73.90;;;;;;5055436;28;20094;-76
2022/03/02 02:09:11;;;;;;;7.47;3.47;;;7.00;73.90;;;;;;5037693;28;20064;-76
2022/03/02 02:11:39;;;;;;;8.55;4.15;;;7.00;73.80;;;;;;5005163;28;20079;-77
2022/03/02 02:14:06;;;;;;;7.72;3.83;;;7.00;73.80;;;;;;5005260;28;20687;-76
2022/03/02 02:16:33;;;;;;;6.45;3.28;;;7.00;73.80;;;;;;5037683;28;20083;-76
2022/03/02 02:19:00;;;;;;;7.72;4.13;;;6.90;73.80;;;;;;5021003;28;20094;-76
2022/03/02 02:21:28;;;;;;;7.32;4.80;;;6.90;74.00;;;;;;5037531;28;20098;-76
2022/03/02 02:23:55;;;;;;;7.35;4.28;;;6.90;74.00;;;;;;5055090;28;20095;-76
2022/03/02 02:26:22;;;;;;;6.43;3.15;;;6.90;74.20;;;;;;5043999;28;20448;-76
2022/03/02 02:28:50;;;;;;;6.70;3.78;;;6.80;74.40;;;;;;5037242;28;20037;-76
2022/03/02 02:31:18;;;;;;;6.00;3.17;;;6.80;74.40;;;;;;5004696;28;20079;-76
2022/03/02 02:33:51;;;;;;;7.00;3.53;;;6.80;74.40;;;;;;5021266;28;20106;-76
2022/03/02 02:36:18;;;;;;;7.55;4.03;;;6.80;74.40;;;;;;5021058;28;20049;-76
2022/03/02 02:38:45;;;;;;;8.48;4.43;;;6.80;74.50;;;;;;5006354;28;20440;-76
2022/03/02 02:41:15;;;;;;;5.85;3.13;;;6.80;74.60;;;;;;5037035;28;20405;-76
2022/03/02 02:43:42;;;;;;;6.43;3.38;;;6.80;74.60;;;;;;5021110;28;20072;-76
2022/03/02 02:46:11;;;;;;;6.25;3.45;;;6.80;74.60;;;;;;5020617;28;20049;-76
2022/03/02 02:48:41;;;;;;;7.13;3.58;;;6.80;74.60;;;;;;5020801;28;20052;-76
2022/03/02 02:51:08;;;;;;;7.18;4.07;;;6.80;74.50;;;;;;5036715;28;20045;-76
2022/03/02 02:53:35;;;;;;;6.72;3.58;;;6.80;74.40;;;;;;5020479;28;20053;-76
2022/03/02 02:56:03;;;;;;;6.55;3.53;;;6.90;74.40;;;;;;5004494;28;20041;-76
2022/03/02 02:58:30;;;;;;;6.50;3.42;;;6.90;74.40;;;;;;5054653;28;20044;-76
2022/03/02 03:00:57;;;;;;;7.90;4.18;;;6.90;74.40;;;;;;5020364;28;20102;-77
2022/03/02 03:03:24;;;;;;;7.20;4.03;;;6.90;74.40;;;;;;5004079;28;20131;-76
2022/03/02 03:05:52;;;;;;;5.80;3.47;;;6.90;74.50;;;;;;5020014;28;20148;-76
2022/03/02 03:08:19;;;;;;;6.10;3.88;;;6.90;74.50;;;;;;5020163;28;20420;-76
2022/03/02 03:10:47;;;;;;;6.57;3.90;;;6.90;74.50;;;;;;5036370;28;20044;-76
2022/03/02 03:13:21;;;;;;;5.80;3.15;;;6.90;74.50;;;;;;5036406;28;20103;-76
2022/03/02 03:15:51;;;;;;;6.95;3.75;;;6.90;74.40;;;;;;5019975;28;20492;-76
2022/03/02 03:18:18;;;;;;;7.32;3.78;;;6.90;74.40;;;;;;5004115;28;20057;-76
2022/03/02 03:20:45;;;;;;;6.90;3.83;;;6.90;74.30;;;;;;5003542;28;20501;-76
2022/03/02 03:23:12;;;;;;;7.60;3.70;;;6.90;74.30;;;;;;5036216;28;20041;-76
2022/03/02 03:25:40;;;;;;;7.07;3.42;;;6.90;74.30;;;;;;5019724;28;20354;-77
2022/03/02 03:28:07;;;;;;;7.28;3.83;;;6.90;74.20;;;;;;5036028;28;20045;-76
2022/03/02 03:30:34;;;;;;;8.80;4.38;;;6.90;74.20;;;;;;5019720;28;20051;-76
2022/03/02 03:33:04;;;;;;;7.20;4.15;;;6.90;74.20;;;;;;4987405;28;20045;-76
2022/03/02 03:35:32;;;;;;;7.80;4.10;;;6.90;74.20;;;;;;5036617;28;20486;-76
2022/03/02 03:37:59;;;;;;;7.00;3.50;;;6.90;74.30;;;;;;5023693;28;20451;-76
2022/03/02 03:40:26;;;;;;;6.38;3.72;;;6.80;74.30;;;;;;5055957;28;20050;-76
2022/03/02 03:42:54;;;;;;;7.80;3.95;;;6.80;74.40;;;;;;5006638;28;20115;-76
2022/03/02 03:45:21;;;;;;;6.45;3.70;;;6.70;74.40;;;;;;5055601;28;20439;-76
2022/03/02 03:47:49;;;;;;;7.97;4.05;;;6.70;74.60;;;;;;5057238;28;20123;-75
2022/03/02 03:50:16;;;;;;;6.95;3.80;;;6.60;74.60;;;;;;5075536;28;20052;-76
2022/03/02 03:52:43;;;;;;;6.55;3.65;;;6.60;74.80;;;;;;5059344;28;20471;-76
2022/03/02 03:55:12;;;;;;;8.27;4.05;;;6.50;74.80;;;;;;5075687;28;20051;-76
2022/03/02 03:57:40;;;;;;;8.15;3.90;;;6.50;74.90;;;;;;5059121;28;20142;-76
2022/03/02 04:00:13;;;;;;;6.18;3.45;;;6.50;74.90;;;;;;5075395;28;20461;-76
2022/03/02 04:02:40;;;;;;;7.20;3.50;;;6.40;75.00;;;;;;5057952;28;20172;-76
2022/03/02 04:05:09;;;;;;;8.85;4.65;;;6.30;75.10;;;;;;5093658;28;20040;-76
2022/03/02 04:07:36;;;;;;;7.10;4.25;;;6.30;75.30;;;;;;5093602;28;20043;-76
2022/03/02 04:10:05;;;;;;;7.68;3.88;;;6.20;75.50;;;;;;5042447;28;20460;-76
2022/03/02 04:12:32;;;;;;;6.50;3.95;;;6.20;75.60;;;;;;5061548;28;20484;-76
2022/03/02 04:15:00;;;;;;;10.18;4.95;;;6.10;75.70;;;;;;5095400;28;20522;-76
2022/03/02 04:17:27;;;;;;;8.63;4.30;;;6.10;75.80;;;;;;5079105;28;20040;-76
2022/03/02 04:19:54;;;;;;;8.13;4.40;;;6.10;75.90;;;;;;5078482;28;20040;-77
2022/03/02 04:22:23;;;;;;;7.22;4.05;;;6.00;75.90;;;;;;5044925;28;20397;-76
2022/03/02 04:24:51;;;;;;;8.13;4.05;;;6.00;76.00;;;;;;5065479;28;20032;-76
2022/03/02 04:27:18;;;;;;;7.18;3.83;;;6.00;76.00;;;;;;5058874;28;20511;-79
2022/03/02 04:29:45;;;;;;;9.75;3.80;;;6.00;76.10;;;;;;5058259;28;20101;-79
2022/03/02 04:32:13;;;;;;;8.75;4.57;;;5.90;76.20;;;;;;5042035;28;20094;-79
2022/03/02 04:34:40;;;;;;;7.15;3.28;;;5.90;76.80;;;;;;5058861;28;20040;-79
2022/03/02 04:37:07;;;;;;;8.75;4.53;;;5.90;76.30;;;;;;5074848;28;20051;-79
2022/03/02 04:39:35;;;;;;;6.65;3.67;;;5.90;76.40;;;;;;5075042;28;20060;-79
2022/03/02 04:42:02;;;;;;;8.68;5.07;;;5.90;76.40;;;;;;5075047;28;20452;-79
2022/03/02 04:44:29;;;;;;;7.72;4.22;;;5.90;76.50;;;;;;5041999;28;20044;-79
2022/03/02 04:46:56;;;;;;;8.68;4.45;;;5.90;76.50;;;;;;5041926;28;20395;-79
2022/03/02 04:49:26;;;;;;;8.15;4.25;;;5.90;76.60;;;;;;5074809;28;20109;-79
2022/03/02 04:51:53;;;;;;;6.97;4.03;;;5.80;76.50;;;;;;5042636;28;20044;-79
2022/03/02 04:57:07;;;;;;;6.97;3.78;;;5.80;76.70;;;;;;5060595;28;20048;-79
2022/03/02 04:59:34;;;;;;;7.18;4.22;;;5.80;76.70;;;;;;5074807;28;20143;-79
2022/03/02 05:02:01;;;;;;;8.57;3.90;;;5.80;76.80;;;;;;5041464;28;20079;-79
2022/03/02 05:04:28;;;;;;;7.88;4.38;;;5.80;76.90;;;;;;5074390;28;20466;-79
2022/03/02 05:06:55;;;;;;;8.43;4.03;;;5.70;76.90;;;;;;5057959;28;20044;-79
2022/03/02 05:09:22;;;;;;;6.05;3.67;;;5.70;77.00;;;;;;5057896;28;20446;-79
2022/03/02 05:11:49;;;;;;;7.65;4.38;;;5.70;77.10;;;;;;5074446;28;20043;-79
2022/03/02 05:14:17;;;;;;;6.93;3.97;;;5.60;77.10;;;;;;5057642;28;20097;-79
2022/03/02 05:16:44;;;;;;;9.00;4.22;;;5.60;77.20;;;;;;5057988;28;20538;-79
2022/03/02 05:19:11;;;;;;;8.70;4.85;;;5.60;77.30;;;;;;5074718;28;20056;-79
2022/03/02 05:21:38;;;;;;;8.50;4.72;;;5.50;77.30;;;;;;5057805;28;20048;-79
2022/03/02 05:24:05;;;;;;;7.63;4.35;;;5.50;77.40;;;;;;5057669;28;20044;-80
2022/03/02 05:26:33;;;;;;;7.13;3.85;;;5.50;77.50;;;;;;5041424;28;20078;-79
2022/03/02 05:29:00;;;;;;;7.88;4.15;;;5.50;77.60;;;;;;5058227;28;20044;-79
2022/03/02 05:31:27;;;;;;;8.25;4.70;;;5.40;77.60;;;;;;5074695;28;20043;-79
2022/03/02 05:33:54;;;;;;;9.35;4.85;;;5.40;77.70;;;;;;5057583;28;20044;-79
2022/03/02 05:36:24;;;;;;;9.05;4.40;;;5.40;77.70;;;;;;5057950;28;20045;-79
2022/03/02 05:38:53;;;;;;;8.93;4.18;;;5.30;77.80;;;;;;5074191;28;20093;-80
2022/03/02 05:41:21;;;;;;;6.82;4.38;;;5.30;77.90;;;;;;5070574;28;20054;-79
2022/03/02 05:43:53;;;;;;;8.93;4.47;;;5.30;78.00;;;;;;5061726;28;20130;-78
2022/03/02 05:46:20;;;;;;;6.43;3.80;;;5.20;78.00;;;;;;5050863;28;20049;-78
2022/03/02 05:48:49;;;;;;;7.03;3.85;;;5.10;78.00;;;;;;5021472;28;20550;-79
2022/03/02 05:51:16;;;;;;;8.27;4.20;;;5.10;78.10;;;;;;5054082;28;20094;-79
2022/03/02 05:53:43;;;;;;;8.43;4.85;;;5.10;78.20;;;;;;5037512;28;20048;-79
2022/03/02 05:56:10;;;;;;;7.65;4.22;;;5.10;78.30;;;;;;5053977;28;20493;-79
2022/03/02 05:58:37;;;;;;;7.72;4.03;;;5.00;78.30;;;;;;5037389;28;20055;-78
2022/03/02 06:01:04;;;;;;;8.45;4.63;;;5.00;78.40;;;;;;5037959;28;20056;-78
2022/03/02 06:03:32;;;;;;;6.70;4.10;;;5.00;78.40;;;;;;5021445;28;20079;-79
2022/03/02 06:05:59;;;;;;;8.10;4.25;;;5.00;78.50;;;;;;5054166;28;20083;-78
2022/03/02 06:08:26;;;;;;;9.45;4.30;;;4.90;78.60;;;;;;5037494;28;20040;-78
2022/03/02 06:10:53;;;;;;;7.95;4.45;;;4.90;78.70;;;;;;5037512;28;20044;-78
2022/03/02 06:13:21;;;;;;;8.30;4.13;;;4.80;78.70;;;;;;5037469;28;20079;-79
2022/03/02 06:15:51;;;;;;;8.20;4.57;;;4.80;78.80;;;;;;5037482;28;20048;-80
2022/03/02 06:18:21;;;;;;;7.88;4.05;;;4.80;78.80;;;;;;5053846;28;20139;-79
2022/03/02 06:20:51;;;;;;;7.93;4.38;;;4.80;78.90;;;;;;5053293;28;20433;-79
2022/03/02 06:23:21;;;;;;;9.40;4.65;;;4.80;79.00;;;;;;5053777;28;20094;-79
2022/03/02 06:25:49;;;;;;;7.45;4.03;;;4.70;79.00;;;;;;5055918;28;20040;-78
2022/03/02 06:28:16;;;;;;;7.72;4.13;;;4.70;79.10;;;;;;5057630;28;20090;-78
2022/03/02 06:30:43;;;;;;;10.35;4.22;;;4.70;79.10;;;;;;5041112;28;20105;-78
2022/03/02 06:33:14;;;;;;;7.75;4.20;;;4.70;79.20;;;;;;5057461;28;20032;-78
2022/03/02 06:35:41;;;;;;;8.13;4.30;;;4.70;79.20;;;;;;5040544;28;20047;-78
2022/03/02 06:38:08;;;;;;;7.47;3.92;;;4.70;79.30;;;;;;5040719;28;20511;-78
2022/03/02 06:40:35;;;;;;;8.25;4.65;;;4.60;79.30;;;;;;5056904;28;20075;-78
2022/03/02 06:43:07;;;;;;;8.93;4.75;;;4.60;79.30;;;;;;5040658;28;20040;-78
2022/03/02 06:45:50;;;;;;;8.77;4.33;;;4.70;79.40;;;;;;5040650;28;20087;-78
2022/03/02 06:48:22;;;;;;;7.60;3.90;;;4.60;79.30;;;;;;5040328;28;20051;-79
2022/03/02 06:50:52;;;;;;;7.78;4.53;;;4.60;79.40;;;;;;5057062;28;20516;-79
2022/03/02 06:53:36;;;;;;;8.02;4.28;;;4.60;79.40;;;;;;5056243;28;20078;-78
2022/03/02 06:56:07;;;;;;;8.38;4.43;;;4.70;79.40;;;;;;5056829;28;20045;-79
2022/03/02 06:58:52;;;;;;;7.32;4.13;;;4.60;79.30;;;;;;5056765;28;20045;-79
2022/03/02 07:01:29;;;;;;;9.18;4.70;;;4.70;79.30;;;;;;5040151;28;20492;-79
2022/03/02 07:03:58;;;;;;;8.10;4.60;;;4.70;79.30;;;;;;5056451;28;20048;-79
2022/03/02 07:06:27;;;;;;;8.20;4.47;;;4.70;79.20;;;;;;5040149;28;20810;-78
2022/03/02 07:08:55;;;;;;;6.40;3.53;;;4.80;79.20;;;;;;5056433;28;20461;-79
2022/03/02 07:11:23;;;;;;;7.80;3.97;;;4.80;79.20;;;;;;5041792;28;20045;-79
2022/03/02 07:13:51;;;;;;;7.32;4.05;;;4.80;79.10;;;;;;5060206;28;20041;-80
2022/03/02 07:16:21;;;;;;;6.15;3.42;;;4.90;79.20;;;;;;5042786;28;20114;-80
2022/03/02 07:18:50;;;;;;;8.18;4.13;;;4.90;79.20;;;;;;5077739;28;20143;-81
2022/03/02 07:21:25;;;;;;;8.30;4.30;;;4.90;79.10;;;;;;5059023;28;20052;-81
2022/03/02 07:24:11;;;;;;;8.75;4.72;;;5.00;79.10;;;;;;5042705;28;20546;-80
2022/03/02 07:26:38;;;;;;;8.48;4.90;;;5.00;79.00;;;;;;5042083;28;20071;-79
2022/03/02 07:29:09;;;;;;;7.47;4.78;;;5.00;78.90;;;;;;5039784;28;20044;-79
2022/03/02 07:31:38;;;;;;;11.15;5.72;;;5.10;78.80;;;;;;5056102;28;20377;-81
2022/03/02 07:34:14;;;;;;;10.00;5.43;;;5.10;78.70;;;;;;5056090;28;20056;-81
2022/03/02 07:36:42;;;;;;;7.88;4.85;;;5.10;78.70;;;;;;5038738;28;20450;-81
2022/03/02 07:39:09;;;;;;;9.10;5.75;;;5.10;78.70;;;;;;5039368;28;20053;-81
2022/03/02 07:41:39;;;;;;;10.30;5.45;;;5.20;78.70;;;;;;5039264;28;20514;-81
2022/03/02 07:44:07;;;;;;;8.27;4.72;;;5.20;78.70;;;;;;5040011;28;20070;-79
2022/03/02 07:46:34;;;;;;;7.65;4.55;;;5.20;78.60;;;;;;5039300;28;20070;-79
2022/03/02 07:49:02;;;;;;;9.15;4.68;;;5.30;78.60;;;;;;5039215;28;20045;-79
2022/03/02 07:51:33;;;;;;;7.75;4.40;;;5.30;78.50;;;;;;5038749;28;20048;-79
2022/03/02 07:54:02;;;;;;;8.80;5.43;;;5.30;78.50;;;;;;5038973;28;20049;-79
2022/03/02 07:56:32;;;;;;;9.05;4.72;;;5.40;78.50;;;;;;5023430;28;20102;-79
2022/03/02 07:59:07;;;;;;;7.68;4.82;;;5.40;78.40;;;;;;5044446;28;20056;-79
2022/03/02 08:01:40;;;;;;;8.35;4.53;;;5.50;78.40;;;;;;5039742;28;20054;-79
2022/03/02 08:04:09;;;;;;;7.78;4.55;;;5.50;78.30;;;;;;5055301;28;20541;-80
2022/03/02 08:06:42;;;;;;;7.95;4.72;;;5.50;78.20;;;;;;5055425;28;20040;-79
2022/03/02 08:09:10;;;;;;;8.40;4.82;;;5.60;78.20;;;;;;5073125;28;20041;-79
2022/03/02 08:11:38;;;;;;;8.63;4.93;;;5.60;78.10;;;;;;5055760;28;20040;-79
2022/03/02 08:14:08;;;;;;;8.52;4.50;;;5.60;77.90;;;;;;5039264;28;20060;-79
2022/03/02 08:16:35;;;;;;;8.23;4.80;;;5.70;78.40;;;;;;5055084;28;20075;-80
2022/03/02 08:19:05;;;;;;;8.68;4.85;;;5.70;77.70;;;;;;5055142;28;20045;-79
2022/03/02 08:21:35;;;;;;;9.25;5.10;;;5.80;77.50;;;;;;5055303;28;20058;-79
2022/03/02 08:24:05;;;;;;;9.85;5.25;;;5.80;77.40;;;;;;5055230;28;20040;-79
2022/03/02 08:26:36;;;;;;;8.95;5.32;;;5.90;77.30;;;;;;5051919;28;20139;-80
2022/03/02 08:29:09;;;;;;;9.35;5.15;;;5.90;77.10;;;;;;5055117;28;20384;-80
2022/03/02 08:31:37;;;;;;;;;;;6.00;77.00;;;;;;5055287;28;20107;-79
2022/03/02 08:34:08;;;;;;;9.07;4.80;;;6.00;76.90;;;;;;5055220;28;19920;-79
2022/03/02 08:36:37;;;;;;;10.52;5.72;;;6.00;76.70;;;;;;5039230;28;20400;-79
2022/03/02 08:39:12;;;;;;;8.43;4.88;;;6.10;76.50;;;;;;5054691;28;20439;-79
2022/03/02 08:41:39;;;;;;;6.93;4.00;;;6.10;76.20;;;;;;5054863;28;20135;-79
2022/03/02 08:44:08;;;;;;;8.35;4.53;;;6.10;76.10;;;;;;5071390;28;20110;-80
2022/03/02 08:46:35;;;;;;;7.80;4.72;;;6.20;76.10;;;;;;5038827;28;20082;-80
2022/03/02 08:49:02;;;;;;;10.07;5.25;;;6.20;75.80;;;;;;5005458;28;20040;-79
2022/03/02 08:51:33;;;;;;;9.23;5.15;;;6.30;75.50;;;;;;5039535;28;20045;-79
2022/03/02 08:54:04;;;;;;;10.85;5.65;;;6.40;75.40;;;;;;5078979;28;20052;-79
2022/03/02 08:56:38;;;;;;;8.95;5.15;;;6.50;74.90;;;;;;5092789;28;20126;-79
2022/03/02 08:59:06;;;;;;;9.07;4.60;;;6.60;74.60;;;;;;5092698;28;20052;-79
2022/03/02 09:01:40;;;;;;;9.48;5.72;;;6.60;74.50;;;;;;5111098;28;20047;-80
2022/03/02 09:04:12;;;;;;;9.35;4.80;;;6.60;74.40;;;;;;5076208;28;20414;-79
2022/03/02 09:06:40;;;;;;;7.05;3.70;;;6.60;74.30;;;;;;5105716;28;20039;-79
2022/03/02 09:09:10;;;;;;;8.38;4.53;;;6.70;74.30;;;;;;5052763;28;20059;-79
2022/03/02 09:11:38;;;;;;;7.88;4.70;;;6.70;74.20;;;;;;5036247;28;20443;-80
2022/03/02 09:14:06;;;;;;;6.85;3.70;;;6.70;73.90;;;;;;5004123;28;20131;-79
2022/03/02 09:16:34;;;;;;;8.65;5.30;;;6.80;73.90;;;;;;5053245;28;20147;-79
2022/03/02 09:19:01;;;;;;;8.95;4.88;;;6.80;73.60;;;;;;5038090;28;20103;-80
2022/03/02 09:21:30;;;;;;;8.23;4.95;;;6.90;73.40;;;;;;5047958;28;20074;-79
2022/03/02 09:23:57;;;;;;;6.80;3.88;;;6.90;73.20;;;;;;5055846;28;20054;-79
2022/03/02 09:26:26;;;;;;;9.20;4.35;;;7.00;73.20;;;;;;5052307;28;20071;-80
2022/03/02 09:28:53;;;;;;;8.45;3.55;;;7.00;73.10;;;;;;5036183;28;20040;-79
2022/03/02 09:31:22;;;;;;;9.10;5.00;;;7.00;73.00;;;;;;5036061;28;20045;-79
2022/03/02 09:33:55;;;;;;;10.15;5.07;;;7.00;72.60;;;;;;5052545;28;20044;-79
2022/03/02 09:36:25;;;;;;;10.88;5.30;;;7.10;72.40;;;;;;5052434;28;20619;-79
2022/03/02 09:38:53;;;;;;;8.88;4.55;;;7.20;72.30;;;;;;5039247;28;20056;-79
2022/03/02 09:41:26;;;;;;;9.27;5.90;;;7.20;72.20;;;;;;5069847;28;20110;-79
2022/03/02 09:43:59;;;;;;;9.82;5.43;;;7.30;71.90;;;;;;5068325;28;20040;-79
2022/03/02 09:46:38;;;;;;;10.40;6.70;;;7.30;71.70;;;;;;5070158;28;20036;-79
2022/03/02 09:49:10;;;;;;;9.85;5.53;;;7.30;71.40;;;;;;5068487;28;20131;-78
2022/03/02 09:51:40;;;;;;;7.53;4.18;;;7.30;71.40;;;;;;5068314;28;20048;-80
2022/03/02 09:54:08;;;;;;;9.07;4.05;;;7.40;71.40;;;;;;5051097;28;20064;-80
2022/03/02 09:56:37;;;;;;;8.55;4.43;;;7.40;71.40;;;;;;5051545;28;20489;-80
2022/03/02 09:59:07;;;;;;;7.93;4.53;;;7.50;71.40;;;;;;5051323;28;20106;-80
2022/03/02 10:01:36;;;;;;;8.40;4.15;;;7.50;71.30;;;;;;5071607;28;20044;-80
2022/03/02 10:04:18;;;;;;;7.25;3.50;;;7.50;71.20;;;;;;5038461;28;20117;-80
2022/03/02 10:06:45;;;;;;;8.18;4.30;;;7.50;71.10;;;;;;5071656;28;20045;-80
2022/03/02 10:09:13;;;;;;;8.00;3.83;;;7.50;71.10;;;;;;5038121;28;20123;-80
2022/03/02 10:11:44;;;;;;;7.90;4.28;;;7.50;71.70;;;;;;5071016;28;20040;-81
2022/03/02 10:14:11;;;;;;;6.90;3.30;;;7.60;71.20;;;;;;5055163;28;20040;-80
2022/03/02 10:16:44;;;;;;;8.00;4.63;;;7.50;71.30;;;;;;5054602;28;20094;-81
2022/03/02 10:19:35;;;;;;;7.60;4.10;;;7.60;71.30;;;;;;5054847;28;20086;-80
2022/03/02 10:22:34;;;;;;;7.82;4.07;;;7.60;71.20;;;;;;5055846;28;20476;-80
2022/03/02 10:25:11;;;;;;;6.20;3.17;;;7.70;71.10;;;;;;5073401;28;20148;-80
2022/03/02 10:28:02;;;;;;;8.43;4.72;;;7.70;71.00;;;;;;5040364;28;20044;-79
2022/03/02 10:30:38;;;;;;;7.97;4.72;;;7.70;70.60;;;;;;5057009;28;20080;-79
2022/03/02 10:33:25;;;;;;;9.00;5.07;;;7.80;70.60;;;;;;5075949;28;20041;-79
2022/03/02 10:36:05;;;;;;;8.98;5.07;;;7.90;70.40;;;;;;5058217;28;20492;-81
2022/03/02 10:38:50;;;;;;;8.88;5.00;;;7.90;70.20;;;;;;5065975;28;20052;-80
2022/03/02 10:41:20;;;;;;;9.80;5.75;;;7.90;70.20;;;;;;5053845;28;20774;-81
2022/03/02 10:44:00;;;;;;;9.10;5.45;;;8.00;70.10;;;;;;5034289;28;20053;-81
2022/03/02 10:46:28;;;;;;;9.73;5.88;;;8.00;69.90;;;;;;5034083;28;20131;-81
2022/03/02 10:49:11;;;;;;;11.45;6.65;;;8.00;69.70;;;;;;5034537;28;20069;-80
2022/03/02 10:51:41;;;;;;;11.68;6.22;;;8.00;69.40;;;;;;5034502;28;20095;-79
2022/03/02 10:54:08;;;;;;;11.32;6.35;;;8.10;69.50;;;;;;5034688;28;20041;-80
2022/03/02 10:56:43;;;;;;;11.50;6.45;;;8.20;69.30;;;;;;5020077;28;20045;-80
2022/03/02 10:59:17;;;;;;;12.25;7.47;;;8.20;69.00;;;;;;5020627;28;20045;-81
2022/03/02 11:01:50;;;;;;;11.50;6.72;;;8.20;68.80;;;;;;5022176;28;20048;-81
2022/03/02 11:04:22;;;;;;;12.55;7.25;;;8.20;68.80;;;;;;5004281;28;20040;-80
2022/03/02 11:06:52;;;;;;;;;;;8.30;68.60;;;;;;5021243;28;20045;-81
2022/03/02 11:09:47;;;;;;;10.98;6.38;;;8.30;68.70;;;;;;5039829;28;20332;-81
2022/03/02 11:12:15;;;;;;;9.32;5.25;;;8.30;68.40;;;;;;5020059;28;20464;-80
2022/03/02 11:15:04;;;;;;;9.93;5.68;;;8.30;68.40;;;;;;5036438;28;20498;-81
2022/03/02 11:17:31;;;;;;;8.77;5.43;;;8.40;68.30;;;;;;5036821;28;20044;-81
2022/03/02 11:20:04;;;;;;;9.73;5.70;;;8.40;68.30;;;;;;5036547;28;20057;-81
2022/03/02 11:22:31;;;;;;;9.90;6.25;;;8.40;68.10;;;;;;5020812;28;20110;-79
2022/03/02 11:24:59;;;;;;;10.52;5.65;;;8.50;67.70;;;;;;5020085;28;20066;-80
2022/03/02 11:27:38;;;;;;;9.90;5.82;;;8.50;67.50;;;;;;5020195;28;20041;-79
2022/03/02 11:30:08;;;;;;;10.90;6.13;;;8.60;67.30;;;;;;5036278;28;20033;-79
2022/03/02 11:32:39;;;;;;;9.57;5.70;;;8.60;67.30;;;;;;5054090;28;20048;-80
2022/03/02 11:35:09;;;;;;;9.50;4.88;;;8.70;67.20;;;;;;5036131;28;20099;-79
2022/03/02 11:37:58;;;;;;;10.18;5.78;;;8.70;67.20;;;;;;5020500;28;20139;-80
2022/03/02 11:40:43;;;;;;;9.82;5.38;;;8.70;66.70;;;;;;5036248;28;20053;-79
2022/03/02 11:43:21;;;;;;;9.88;5.43;;;8.70;67.40;;;;;;5036169;28;20099;-79
2022/03/02 11:45:56;;;;;;;9.77;5.55;;;8.80;66.80;;;;;;5035986;28;20489;-80
2022/03/02 11:48:37;;;;;;;8.77;4.95;;;8.80;66.70;;;;;;5053790;28;20036;-79
2022/03/02 11:51:07;;;;;;;7.78;4.47;;;8.80;66.60;;;;;;5053786;28;20571;-79
2022/03/02 11:53:37;;;;;;;8.90;4.70;;;8.90;66.50;;;;;;5055779;28;20056;-79
2022/03/02 11:56:06;;;;;;;7.22;4.18;;;8.90;66.30;;;;;;5039607;28;20049;-80
2022/03/02 11:58:58;;;;;;;7.57;4.03;;;9.00;66.40;;;;;;5057794;28;20035;-80
2022/03/02 12:01:50;;;;;;;6.57;4.18;;;8.90;66.30;;;;;;5076732;28;20047;-81
2022/03/02 12:04:30;;;;;;;8.10;4.43;;;8.90;66.20;;;;;;5091837;28;20048;-80
2022/03/02 12:06:58;;;;;;;9.07;5.07;;;8.90;66.20;;;;;;5092081;28;20727;-80
2022/03/02 12:09:30;;;;;;;10.45;5.35;;;9.00;65.70;;;;;;5074461;28;20036;-80
2022/03/02 12:12:11;;;;;;;8.68;5.60;;;9.10;65.60;;;;;;5067549;28;20053;-80
2022/03/02 12:14:47;;;;;;;8.73;4.70;;;9.20;65.30;;;;;;5037292;28;20049;-80
2022/03/02 12:17:25;;;;;;;8.15;4.80;;;9.10;65.20;;;;;;5053182;28;20056;-81
2022/03/02 12:19:58;;;;;;;7.50;4.32;;;9.20;65.20;;;;;;5036248;28;20052;-80
2022/03/02 12:22:32;;;;;;;;;;;9.20;65.10;;;;;;5052840;28;20044;-81
2022/03/02 12:25:00;;;;;;;7.53;4.20;;;9.20;65.10;;;;;;5068967;28;19927;-81
2022/03/02 12:27:27;;;;;;;8.68;4.82;;;9.20;65.10;;;;;;5071047;28;20614;-83
2022/03/02 12:30:04;;;;;;;8.02;4.70;;;9.20;65.10;;;;;;5035937;28;20101;-81
2022/03/02 12:32:34;;;;;;;8.50;4.45;;;9.30;65.00;;;;;;5052668;28;20051;-83
2022/03/02 12:35:04;;;;;;;7.63;4.22;;;9.30;64.90;;;;;;5052449;28;20049;-80
2022/03/02 12:37:33;;;;;;;7.43;3.80;;;9.30;64.80;;;;;;5052348;28;20048;-81
2022/03/02 12:40:10;;;;;;;7.55;3.95;;;9.30;65.50;;;;;;5070815;28;20514;-81
2022/03/02 12:42:38;;;;;;;7.72;3.63;;;9.30;64.80;;;;;;5055958;28;20110;-81
2022/03/02 12:45:06;;;;;;;7.40;3.47;;;9.40;65.00;;;;;;5055197;28;20067;-82
2022/03/02 12:47:34;;;;;;;5.82;3.28;;;9.30;64.90;;;;;;5070132;28;20044;-82
2022/03/02 12:50:09;;;;;;;6.57;3.83;;;9.40;64.60;;;;;;5071074;28;20033;-82
2022/03/02 12:52:36;;;;;;;8.73;4.38;;;9.50;64.10;;;;;;5070009;28;20041;-82
2022/03/02 12:55:07;;;;;;;6.78;4.13;;;9.50;64.00;;;;;;5081706;28;20070;-82
2022/03/02 12:57:36;;;;;;;7.18;3.85;;;9.50;64.00;;;;;;5090337;28;20051;-82
2022/03/02 13:00:24;;;;;;;8.52;4.45;;;9.50;63.90;;;;;;5090393;28;20593;-83
2022/03/02 13:02:54;;;;;;;7.00;4.00;;;9.50;63.50;;;;;;5090587;28;20198;-83
2022/03/02 13:05:43;;;;;;;5.45;3.40;;;9.60;63.30;;;;;;5072563;28;20683;-82
2022/03/02 13:08:37;;;;;;;6.65;3.90;;;9.60;63.60;;;;;;5051863;28;20040;-82
2022/03/02 13:11:04;;;;;;;6.90;3.67;;;9.60;62.90;;;;;;5035607;28;20051;-83
2022/03/02 13:13:32;;;;;;;6.53;3.05;;;9.60;63.20;;;;;;5052081;28;20500;-82
2022/03/02 13:16:21;;;;;;;6.32;2.97;;;9.70;63.20;;;;;;5034895;28;20032;-82